TOTEM BAY KUPREANOF ISLAND RAWS NEAR PE HADS current weather conditions

sailwx.info

Wind from 157 at 4 knots gusting 12

Air temperature 12.2° C
Dewpoint 11.9° C

Last reported at 2017-Aug-21 01:55 UTC.
Time now 2017-Aug-21 02:39 UTC

Location: N 56°18' W 132°51'.
View on Google Maps.

See reports from other nearby stations

  
Tides and Currents Weather Stations Pressure Air Temp Water Temp Dewpoint Dewpoint Depression Visibility Wind Speed Wind Dir Waves Ship Positions
date/time (UTC)wind fromknots sea level pressurealtimeterstation pressurevisibilityair tempwater tempwave heightnotes
2017-Aug-21 01:55 157 4 gusting 12 12.2
2017-Aug-21 00:55 189 2 gusting 8 12.2
2017-Aug-20 23:55 172 2 gusting 10 12.8
2017-Aug-20 22:55 112 2 gusting 10 12.8
2017-Aug-20 21:55 121 1 gusting 6 13.3
2017-Aug-20 20:55 197 2 gusting 6 13.3
2017-Aug-20 19:55 294 13.3
2017-Aug-20 18:55 110 3 gusting 6 13.3
2017-Aug-20 17:55 070 4 gusting 7 12.8
2017-Aug-20 16:55 094 4 gusting 7 12.8
2017-Aug-20 15:55 066 3 gusting 7 11.1
2017-Aug-20 14:55 072 3 gusting 7 11.1
2017-Aug-20 13:55 058 4 gusting 7 10.0
2017-Aug-20 12:55 068 5 gusting 8 10.0
2017-Aug-20 11:55 099 2 gusting 7 10.6
2017-Aug-20 10:55 141 1 gusting 11 10.6
2017-Aug-20 09:55 172 5 gusting 12 10.6
2017-Aug-20 08:55 152 3 gusting 13 10.6
2017-Aug-20 07:55 174 4 gusting 11 10.6
2017-Aug-20 06:55 161 3 gusting 13 10.0
2017-Aug-20 05:55 170 6 gusting 13 10.6
2017-Aug-20 04:55 153 4 gusting 14 10.0
2017-Aug-20 03:55 169 3 gusting 11 10.6
2017-Aug-20 02:55 181 6 gusting 13 10.6
2017-Aug-20 01:55 190 7 gusting 14 10.0
2017-Aug-20 00:55 196 8 gusting 16 10.0
2017-Aug-19 23:55 233 5 gusting 11 10.0
2017-Aug-19 22:55 173 6 gusting 13 10.6
2017-Aug-19 21:55 173 8 gusting 19 10.0
2017-Aug-19 20:55 178 12 gusting 26 9.4
2017-Aug-19 19:55 195 8 gusting 21 10.0
2017-Aug-19 18:55 197 6 gusting 16 10.6
2017-Aug-19 17:55 190 6 gusting 17 10.0
2017-Aug-19 16:55 180 9 gusting 17 10.0
2017-Aug-19 15:55 185 7 gusting 13 10.0
2017-Aug-19 14:55 174 6 gusting 13 10.0
2017-Aug-19 13:55 179 6 gusting 13 9.4
2017-Aug-19 12:55 221 5 gusting 10 9.4
2017-Aug-19 11:55 191 3 gusting 9 10.0
2017-Aug-19 10:55 195 5 gusting 10 10.0
2017-Aug-19 09:55 199 4 gusting 9 10.0
2017-Aug-19 08:55 189 5 gusting 10 10.0
2017-Aug-19 07:55 192 6 gusting 10 10.0
2017-Aug-19 06:55 191 4 gusting 10 10.0
2017-Aug-19 05:55 204 5 gusting 9 10.6
2017-Aug-19 04:55 211 2 gusting 6 10.0
2017-Aug-19 03:55 221 2 gusting 5 10.6
2017-Aug-19 02:55 233 3 gusting 7 11.1